Marshall, Oklahoma
Current Conditions -  °F | °C
As of 2:50 PM on Tuesday 21 Oct 2014 (Local Time) from KWDG Reporting Station
Broken Clouds Broken Clouds  
Wind Chill: 84°   Ceiling: 13000
Heat Index: 84°   Visibility: 10mi
Dew Point: 57°   Wind: 12mph
Humidity: 40%   Direction: 160°SSE
Pressure: 30.02"   Gusts: NA
Location:  36.15°N, 97.63°W
Report Text: KWDG 211950Z 16010KT 10SM SCT065 SCT070 BKN130 29/14 A3002
Loading
Personal Weather Stations






























Interactive Weather Map
Tropical Storm Tracking
New forecast layout! Learn more

10-Day Weather Forecast

Advertisements
Track Severe Weather on mobile